createdAt,value
2023-01-10T00:01:37.386Z,4.70
2023-01-10T00:04:04.597Z,4.70
2023-01-10T00:06:33.108Z,4.70
2023-01-10T00:09:00.373Z,4.70
2023-01-10T00:12:02.872Z,4.70
2023-01-10T00:14:30.032Z,4.70
2023-01-10T00:16:57.256Z,4.70
2023-01-10T00:19:24.257Z,4.70
2023-01-10T00:21:52.536Z,4.70
2023-01-10T00:24:19.421Z,4.70
2023-01-10T00:26:53.976Z,4.60
2023-01-10T00:29:24.059Z,4.60
2023-01-10T00:31:51.023Z,4.60
2023-01-10T00:34:17.929Z,4.50
2023-01-10T00:36:45.708Z,4.60
2023-01-10T00:39:14.475Z,4.60
2023-01-10T00:42:00.045Z,4.60
2023-01-10T00:44:27.170Z,4.50
2023-01-10T00:46:54.469Z,4.50
2023-01-10T00:49:21.463Z,4.50
2023-01-10T00:51:48.578Z,4.50
2023-01-10T00:54:17.825Z,4.60
2023-01-10T00:56:44.714Z,4.60
2023-01-10T00:59:11.579Z,4.60
2023-01-10T01:01:38.713Z,4.60
2023-01-10T01:04:05.810Z,4.60
2023-01-10T01:06:32.888Z,4.60
2023-01-10T01:08:59.779Z,4.60
2023-01-10T01:11:28.021Z,4.60
2023-01-10T01:13:55.087Z,4.70
2023-01-10T01:16:22.431Z,4.70
2023-01-10T01:18:49.363Z,4.70
2023-01-10T01:21:16.298Z,4.60
2023-01-10T01:23:43.218Z,4.60
2023-01-10T01:26:11.021Z,4.50
2023-01-10T01:28:39.237Z,4.50
2023-01-10T01:31:09.789Z,4.50
2023-01-10T01:33:37.410Z,4.50
2023-01-10T01:36:08.858Z,4.50
2023-01-10T01:38:35.767Z,4.40
2023-01-10T01:41:02.797Z,4.40
2023-01-10T01:43:32.098Z,4.40
2023-01-10T01:46:03.219Z,4.40
2023-01-10T01:48:36.275Z,4.40
2023-01-10T01:51:08.242Z,4.30
2023-01-10T01:53:43.289Z,4.40
2023-01-10T01:56:16.493Z,4.40
2023-01-10T01:58:47.887Z,4.40
2023-01-10T02:01:17.675Z,4.40
2023-01-10T02:03:49.705Z,4.40
2023-01-10T02:06:20.427Z,4.40
2023-01-10T02:09:03.605Z,4.40
2023-01-10T02:11:30.994Z,4.40
2023-01-10T02:13:59.254Z,4.40
2023-01-10T02:16:27.479Z,4.40
2023-01-10T02:18:54.387Z,4.40
2023-01-10T02:21:39.296Z,4.30
2023-01-10T02:28:44.132Z,4.30
2023-01-10T02:31:30.720Z,4.30
2023-01-10T02:34:06.047Z,4.30
2023-01-10T02:36:43.414Z,4.20
2023-01-10T02:39:20.093Z,4.20
2023-01-10T02:41:56.226Z,4.20
2023-01-10T02:44:29.788Z,4.20
2023-01-10T02:46:56.884Z,4.20
2023-01-10T02:49:25.105Z,4.20
2023-01-10T02:51:52.211Z,4.20
2023-01-10T02:54:22.189Z,4.20
2023-01-10T02:57:09.393Z,4.20
2023-01-10T03:00:05.206Z,4.20
2023-01-10T03:02:52.979Z,4.30
2023-01-10T03:05:30.908Z,4.30
2023-01-10T03:08:05.231Z,4.30
2023-01-10T03:10:37.308Z,4.30
2023-01-10T03:13:10.385Z,4.20
2023-01-10T03:15:39.943Z,4.30
2023-01-10T03:18:11.771Z,4.30
2023-01-10T03:20:44.502Z,4.30
2023-01-10T03:23:13.328Z,4.40
2023-01-10T03:25:41.097Z,4.30
2023-01-10T03:28:12.662Z,4.30
2023-01-10T03:30:43.583Z,4.40
2023-01-10T03:33:12.607Z,4.40
2023-01-10T03:35:58.835Z,4.40
2023-01-10T03:38:32.704Z,4.40
2023-01-10T03:41:05.806Z,4.40
2023-01-10T03:43:58.900Z,4.40
2023-01-10T03:46:30.967Z,4.40
2023-01-10T03:48:59.511Z,4.50
2023-01-10T03:51:29.261Z,4.50
2023-01-10T03:53:59.937Z,4.50
2023-01-10T03:56:27.090Z,4.50
2023-01-10T03:58:53.994Z,4.60
2023-01-10T04:01:21.003Z,4.60
2023-01-10T04:03:47.983Z,4.60
2023-01-10T04:06:14.869Z,4.50
2023-01-10T04:08:43.069Z,4.60
2023-01-10T04:11:09.923Z,4.60
2023-01-10T04:13:37.802Z,4.50
2023-01-10T04:16:05.080Z,4.50
2023-01-10T04:18:31.897Z,4.50
2023-01-10T04:20:58.710Z,4.40
2023-01-10T04:23:25.560Z,4.40
2023-01-10T04:25:53.770Z,4.40
2023-01-10T04:28:20.630Z,4.40
2023-01-10T04:30:47.526Z,4.40
2023-01-10T04:33:14.363Z,4.40
2023-01-10T04:35:41.249Z,4.40
2023-01-10T04:38:08.088Z,4.50
2023-01-10T04:40:34.944Z,4.50
2023-01-10T04:43:03.241Z,4.50
2023-01-10T04:45:30.136Z,4.50
2023-01-10T04:47:57.128Z,4.50
2023-01-10T04:50:24.000Z,4.40
2023-01-10T04:52:50.907Z,4.40
2023-01-10T04:55:17.779Z,4.40
2023-01-10T04:57:44.660Z,4.40
2023-01-10T05:00:13.589Z,4.40
2023-01-10T05:02:43.983Z,4.30
2023-01-10T05:05:11.156Z,4.30
2023-01-10T05:07:38.493Z,4.20
2023-01-10T05:10:07.083Z,4.20
2023-01-10T05:12:34.101Z,4.20
2023-01-10T05:15:00.955Z,4.20
2023-01-10T05:17:29.121Z,4.10
2023-01-10T05:19:55.934Z,4.10
2023-01-10T05:22:22.815Z,4.10
2023-01-10T05:24:50.010Z,4.10
2023-01-10T05:27:16.923Z,4.10
2023-01-10T05:29:44.033Z,4.20
2023-01-10T05:32:10.991Z,4.20
2023-01-10T05:34:39.308Z,4.20
2023-01-10T05:37:06.261Z,4.20
2023-01-10T05:39:33.132Z,4.20
2023-01-10T05:42:00.450Z,4.30
2023-01-10T05:44:27.297Z,4.30
2023-01-10T05:46:54.208Z,4.30
2023-01-10T05:49:21.090Z,4.30
2023-01-10T05:51:49.302Z,4.30
2023-01-10T05:54:16.494Z,4.30
2023-01-10T05:56:43.393Z,4.30
2023-01-10T05:59:23.801Z,4.30
2023-01-10T06:01:54.696Z,4.30
2023-01-10T06:04:21.590Z,4.30
2023-01-10T06:06:49.898Z,4.40
2023-01-10T06:09:16.737Z,4.40
2023-01-10T06:11:43.617Z,4.40
2023-01-10T06:14:10.483Z,4.30
2023-01-10T06:16:37.342Z,4.40
2023-01-10T06:19:04.559Z,4.40
2023-01-10T06:21:31.435Z,4.30
2023-01-10T06:23:59.639Z,4.30
2023-01-10T06:26:26.500Z,4.30
2023-01-10T06:28:53.460Z,4.30
2023-01-10T06:31:22.477Z,4.30
2023-01-10T06:33:50.566Z,4.20
2023-01-10T06:36:17.807Z,4.20
2023-01-10T06:38:44.803Z,4.20
2023-01-10T06:41:13.228Z,4.20
2023-01-10T06:43:40.569Z,4.20
2023-01-10T06:46:09.773Z,4.20
2023-01-10T06:48:36.916Z,4.20
2023-01-10T06:51:04.263Z,4.30
2023-01-10T06:53:31.644Z,4.30
2023-01-10T06:55:59.503Z,4.30
2023-01-10T06:58:27.739Z,4.30
2023-01-10T07:00:54.779Z,4.30
2023-01-10T07:03:21.829Z,4.20
2023-01-10T07:05:48.836Z,4.30
2023-01-10T07:08:16.161Z,4.30
2023-01-10T07:10:43.799Z,4.30
2023-01-10T07:13:10.986Z,4.20
2023-01-10T07:15:39.246Z,4.20
2023-01-10T07:18:06.132Z,4.20
2023-01-10T07:20:33.052Z,4.20
2023-01-10T07:23:00.792Z,4.30
2023-01-10T07:25:29.433Z,4.30
2023-01-10T07:27:56.469Z,4.30
2023-01-10T07:30:25.499Z,4.40
2023-01-10T07:32:57.531Z,4.30
2023-01-10T07:35:25.330Z,4.40
2023-01-10T07:37:52.148Z,4.40
2023-01-10T07:40:19.233Z,4.40
2023-01-10T07:42:46.075Z,4.50
2023-01-10T07:45:13.067Z,4.50
2023-01-10T07:47:39.950Z,4.50
2023-01-10T07:50:10.092Z,4.50
2023-01-10T07:52:38.327Z,4.50
2023-01-10T07:55:06.456Z,4.50
2023-01-10T07:57:33.326Z,4.50
2023-01-10T08:00:00.169Z,4.60
2023-01-10T08:02:27.384Z,4.60
2023-01-10T08:04:54.315Z,4.60
2023-01-10T08:07:22.512Z,4.60
2023-01-10T08:09:49.413Z,4.60
2023-01-10T08:12:16.244Z,4.70
2023-01-10T08:14:43.234Z,4.70
2023-01-10T08:17:10.215Z,4.70
2023-01-10T08:19:37.176Z,4.70
2023-01-10T08:22:04.097Z,4.80
2023-01-10T08:24:32.318Z,4.70
2023-01-10T08:27:00.400Z,4.80
2023-01-10T08:29:27.479Z,4.80
2023-01-10T08:31:54.640Z,4.80
2023-01-10T08:34:21.490Z,4.80
2023-01-10T08:36:50.490Z,4.80
2023-01-10T08:39:17.346Z,4.80
2023-01-10T08:41:45.581Z,4.70
2023-01-10T08:44:13.513Z,4.70
2023-01-10T08:46:40.496Z,4.70
2023-01-10T08:49:07.566Z,4.70
2023-01-10T08:51:34.511Z,4.60
2023-01-10T08:54:01.517Z,4.60
2023-01-10T08:56:28.547Z,4.50
2023-01-10T08:58:56.844Z,4.50
2023-01-10T09:01:23.766Z,4.50
2023-01-10T09:03:50.761Z,4.50
2023-01-10T09:06:17.696Z,4.60
2023-01-10T09:08:44.885Z,4.70
2023-01-10T09:11:11.888Z,4.70
2023-01-10T09:13:40.185Z,4.70
2023-01-10T09:16:09.446Z,4.70
2023-01-10T09:18:36.295Z,4.70
2023-01-10T09:21:03.396Z,4.70
2023-01-10T09:23:30.342Z,4.70
2023-01-10T09:25:57.907Z,4.80
2023-01-10T09:28:24.927Z,4.80
2023-01-10T09:30:51.956Z,4.80
2023-01-10T09:33:20.445Z,4.80
2023-01-10T09:35:47.412Z,4.80
2023-01-10T09:38:16.335Z,4.90
2023-01-10T09:41:12.239Z,4.90
2023-01-10T09:43:51.803Z,4.80
2023-01-10T09:46:28.252Z,4.80
2023-01-10T09:49:03.368Z,4.80
2023-01-10T09:51:36.614Z,4.80
2023-01-10T09:54:12.466Z,4.80
2023-01-10T09:56:40.619Z,4.80
2023-01-10T09:59:14.950Z,4.80
2023-01-10T10:01:41.981Z,4.90
2023-01-10T10:04:22.351Z,4.90
2023-01-10T10:06:50.119Z,5.00
2023-01-10T10:09:21.970Z,5.00
2023-01-10T10:12:21.262Z,5.10
2023-01-10T10:15:01.664Z,5.10
2023-01-10T10:17:42.944Z,5.20
2023-01-10T10:20:27.392Z,5.20
2023-01-10T10:23:10.127Z,5.40
2023-01-10T10:25:48.644Z,5.50
2023-01-10T10:28:33.411Z,5.70
2023-01-10T10:31:14.965Z,5.70
2023-01-10T10:33:56.813Z,5.80
2023-01-10T10:36:33.186Z,5.90
2023-01-10T10:39:02.603Z,6.00
2023-01-10T10:41:34.395Z,6.10
2023-01-10T10:44:18.839Z,6.10
2023-01-10T10:46:45.992Z,6.10
2023-01-10T10:49:18.848Z,6.10
2023-01-10T10:51:51.101Z,6.10
2023-01-10T10:54:18.484Z,6.10
2023-01-10T10:56:47.062Z,6.10
2023-01-10T10:59:18.735Z,6.10
2023-01-10T11:01:47.998Z,6.10
2023-01-10T11:04:19.500Z,6.10
2023-01-10T11:06:51.034Z,6.20
2023-01-10T11:09:44.455Z,6.20
2023-01-10T11:12:14.798Z,6.30
2023-01-10T11:14:45.877Z,6.30
2023-01-10T11:17:20.052Z,6.30
2023-01-10T11:19:56.235Z,6.30
2023-01-10T11:22:25.475Z,6.30
2023-01-10T11:24:56.378Z,6.30
2023-01-10T11:27:26.145Z,6.30
2023-01-10T11:29:56.661Z,6.30
2023-01-10T11:32:31.967Z,6.30
2023-01-10T11:35:02.017Z,6.30
2023-01-10T11:37:32.343Z,6.30
2023-01-10T11:40:24.337Z,6.40
2023-01-10T11:42:52.120Z,6.50
2023-01-10T11:45:31.841Z,6.50
2023-01-10T11:48:08.050Z,6.60
2023-01-10T11:50:37.008Z,6.70
2023-01-10T11:53:07.995Z,6.80
2023-01-10T11:55:37.992Z,7.00
2023-01-10T11:58:09.035Z,7.10
2023-01-10T12:00:41.544Z,7.20
2023-01-10T12:03:18.029Z,7.30
2023-01-10T12:05:54.540Z,7.40
2023-01-10T12:08:27.036Z,7.50
2023-01-10T12:11:01.714Z,7.80
2023-01-10T12:13:30.702Z,8.20
2023-01-10T12:16:18.221Z,8.40
2023-01-10T12:18:46.028Z,8.50
2023-01-10T12:21:16.211Z,8.70
2023-01-10T12:23:46.237Z,8.60
2023-01-10T12:26:13.923Z,8.40
2023-01-10T12:28:45.431Z,8.20
2023-01-10T12:31:14.764Z,8.30
2023-01-10T12:33:48.636Z,8.60
2023-01-10T12:36:24.199Z,8.80
2023-01-10T12:39:05.042Z,8.90
2023-01-10T12:42:01.929Z,8.70
2023-01-10T12:44:34.500Z,8.40
2023-01-10T12:47:10.788Z,8.50
2023-01-10T12:49:47.816Z,8.30
2023-01-10T12:52:29.492Z,8.40
2023-01-10T12:54:58.172Z,8.50
2023-01-10T12:57:31.472Z,8.50
2023-01-10T13:00:01.168Z,8.50
2023-01-10T13:02:37.407Z,8.40
2023-01-10T13:05:06.002Z,8.50
2023-01-10T13:07:35.159Z,8.60
2023-01-10T13:10:05.794Z,8.70
2023-01-10T13:12:36.746Z,8.70
2023-01-10T13:15:07.311Z,8.70
2023-01-10T13:17:42.591Z,8.70
2023-01-10T13:20:26.944Z,8.70
2023-01-10T13:22:56.464Z,8.50
2023-01-10T13:25:26.837Z,8.30
2023-01-10T13:27:57.564Z,8.30
2023-01-10T13:30:31.067Z,8.30
2023-01-10T13:33:04.437Z,8.30
2023-01-10T13:35:42.707Z,8.40
2023-01-10T13:38:18.913Z,8.50
2023-01-10T13:41:02.944Z,8.40
2023-01-10T13:43:59.467Z,8.30
2023-01-10T13:46:51.368Z,8.30
2023-01-10T13:49:41.496Z,8.20
2023-01-10T13:52:36.613Z,8.20
2023-01-10T13:55:28.734Z,8.30
2023-01-10T13:57:59.258Z,8.30
2023-01-10T14:01:06.938Z,8.30
2023-01-10T14:03:52.280Z,8.20
2023-01-10T14:06:40.908Z,8.20
2023-01-10T14:09:44.635Z,8.30
2023-01-10T14:12:28.026Z,8.40
2023-01-10T14:15:00.301Z,8.50
2023-01-10T14:17:30.198Z,8.60
2023-01-10T14:20:14.080Z,8.70
2023-01-10T14:22:45.331Z,8.60
2023-01-10T14:25:19.389Z,8.60
2023-01-10T14:27:48.127Z,8.50
2023-01-10T14:30:20.816Z,8.50
2023-01-10T14:32:51.090Z,8.50
2023-01-10T14:35:19.849Z,8.50
2023-01-10T14:37:53.103Z,8.40
2023-01-10T14:40:26.355Z,8.40
2023-01-10T14:42:58.436Z,8.20
2023-01-10T14:45:33.477Z,8.00
2023-01-10T14:48:00.437Z,7.80
2023-01-10T14:50:30.057Z,7.70
2023-01-10T14:52:57.227Z,7.50
2023-01-10T14:55:24.161Z,7.40
2023-01-10T14:57:55.869Z,7.40
2023-01-10T15:00:27.052Z,7.20
2023-01-10T15:02:55.427Z,7.20
2023-01-10T15:05:26.989Z,7.00
2023-01-10T15:07:54.422Z,6.90
2023-01-10T15:10:25.657Z,6.80
2023-01-10T15:12:56.107Z,6.70
2023-01-10T15:15:28.531Z,6.70
2023-01-10T15:17:57.954Z,6.60
2023-01-10T15:20:25.155Z,6.50
2023-01-10T15:22:57.484Z,6.40
2023-01-10T15:25:31.559Z,6.40
2023-01-10T15:27:59.273Z,6.40
2023-01-10T15:30:28.937Z,6.30
2023-01-10T15:33:02.298Z,6.30
2023-01-10T15:35:36.252Z,6.30
2023-01-10T15:38:07.439Z,6.30
2023-01-10T15:40:36.688Z,6.30
2023-01-10T15:43:23.780Z,6.30
2023-01-10T15:45:51.594Z,6.30
2023-01-10T15:48:31.971Z,6.20
2023-01-10T15:51:03.551Z,6.20
2023-01-10T15:53:50.572Z,6.20
2023-01-10T15:56:20.903Z,6.20
2023-01-10T15:58:48.660Z,6.20
2023-01-10T16:01:16.476Z,6.20
2023-01-10T16:03:48.636Z,6.20
2023-01-10T16:06:24.548Z,6.10
2023-01-10T16:08:53.078Z,6.00
2023-01-10T16:11:42.600Z,6.00
2023-01-10T16:14:09.742Z,5.90
2023-01-10T16:16:36.809Z,5.90
2023-01-10T16:19:04.989Z,5.80
2023-01-10T16:21:38.019Z,5.80
2023-01-10T16:24:06.236Z,5.80
2023-01-10T16:26:33.870Z,5.80
2023-01-10T16:29:00.791Z,5.70
2023-01-10T16:31:27.757Z,5.70
2023-01-10T16:33:54.682Z,5.70
2023-01-10T16:36:22.854Z,5.70
2023-01-10T16:38:49.724Z,5.60
2023-01-10T16:41:35.698Z,5.70
2023-01-10T16:44:02.876Z,5.60
2023-01-10T16:46:30.228Z,5.50
2023-01-10T16:48:58.713Z,5.50
2023-01-10T16:51:30.093Z,5.50
2023-01-10T16:53:57.293Z,5.50
2023-01-10T16:56:27.065Z,5.40
2023-01-10T16:58:55.030Z,5.40
2023-01-10T17:01:24.749Z,5.40
2023-01-10T17:03:52.139Z,5.30
2023-01-10T17:06:19.225Z,5.40
2023-01-10T17:08:47.846Z,5.30
2023-01-10T17:11:18.010Z,5.30
2023-01-10T17:13:46.075Z,5.40
2023-01-10T17:16:13.570Z,5.40
2023-01-10T17:18:40.510Z,5.40
2023-01-10T17:21:14.507Z,5.40
2023-01-10T17:23:41.920Z,5.50
2023-01-10T17:26:11.528Z,5.50
2023-01-10T17:28:38.819Z,5.60
2023-01-10T17:31:05.886Z,5.60
2023-01-10T17:33:34.051Z,5.60
2023-01-10T17:36:00.999Z,5.60
2023-01-10T17:38:28.573Z,5.60
2023-01-10T17:40:57.693Z,5.60
2023-01-10T17:43:25.901Z,5.50
2023-01-10T17:45:52.942Z,5.50
2023-01-10T17:48:20.065Z,5.40
2023-01-10T17:50:48.211Z,5.40
2023-01-10T17:53:16.992Z,5.30
2023-01-10T17:55:44.641Z,5.30
2023-01-10T17:58:11.556Z,5.30
2023-01-10T18:00:40.174Z,5.40
2023-01-10T18:03:07.440Z,5.30
2023-01-10T18:05:35.205Z,5.30
2023-01-10T18:08:02.395Z,5.20
2023-01-10T18:10:29.955Z,5.20
2023-01-10T18:13:01.822Z,5.20
2023-01-10T18:15:30.119Z,5.20
2023-01-10T18:17:58.336Z,5.20
2023-01-10T18:20:25.195Z,5.20
2023-01-10T18:23:10.408Z,5.20
2023-01-10T18:25:37.247Z,5.20
2023-01-10T18:28:04.297Z,5.20
2023-01-10T18:30:31.136Z,5.20
2023-01-10T18:32:59.470Z,5.30
2023-01-10T18:35:27.944Z,5.30
2023-01-10T18:37:55.967Z,5.40
2023-01-10T18:40:22.885Z,5.30
2023-01-10T18:42:53.676Z,5.40
2023-01-10T18:45:22.441Z,5.30
2023-01-10T18:47:51.813Z,5.30
2023-01-10T18:50:20.076Z,5.40
2023-01-10T18:52:46.959Z,5.40
2023-01-10T18:55:14.139Z,5.40
2023-01-10T18:57:41.005Z,5.40
2023-01-10T19:00:09.143Z,5.40
2023-01-10T19:02:36.300Z,5.40
2023-01-10T19:05:04.719Z,5.40
2023-01-10T19:07:32.944Z,5.40
2023-01-10T19:09:59.794Z,5.40
2023-01-10T19:12:27.138Z,5.50
2023-01-10T19:14:53.984Z,5.50
2023-01-10T19:17:22.285Z,5.40
2023-01-10T19:19:49.179Z,5.40
2023-01-10T19:22:16.425Z,5.40
2023-01-10T19:24:44.835Z,5.40
2023-01-10T19:27:11.976Z,5.40
2023-01-10T19:29:39.047Z,5.40
2023-01-10T19:32:05.994Z,5.40
2023-01-10T19:34:32.829Z,5.40
2023-01-10T19:36:59.661Z,5.40
2023-01-10T19:39:26.644Z,5.40
2023-01-10T19:41:55.169Z,5.40
2023-01-10T19:44:22.013Z,5.40
2023-01-10T19:46:49.096Z,5.40
2023-01-10T19:49:19.383Z,5.40
2023-01-10T19:51:49.215Z,5.40
2023-01-10T19:54:16.117Z,5.40
2023-01-10T19:56:43.162Z,5.40
2023-01-10T19:59:13.741Z,5.40
2023-01-10T20:01:40.985Z,5.40
2023-01-10T20:04:07.905Z,5.50
2023-01-10T20:06:36.973Z,5.50
2023-01-10T20:09:04.451Z,5.50
2023-01-10T20:11:37.331Z,5.50
2023-01-10T20:14:04.787Z,5.40
2023-01-10T20:16:33.281Z,5.50
2023-01-10T20:19:00.129Z,5.50
2023-01-10T20:21:26.956Z,5.50
2023-01-10T20:23:53.892Z,5.50
2023-01-10T20:26:22.670Z,5.50
2023-01-10T20:28:50.590Z,5.50
2023-01-10T20:31:20.617Z,5.50
2023-01-10T20:33:48.878Z,5.50
2023-01-10T20:36:19.415Z,5.50
2023-01-10T20:38:46.327Z,5.50
2023-01-10T20:41:14.636Z,5.50
2023-01-10T20:43:41.569Z,5.50
2023-01-10T20:46:11.208Z,5.50
2023-01-10T20:48:38.912Z,5.50
2023-01-10T20:51:08.704Z,5.50
2023-01-10T20:53:36.071Z,5.50
2023-01-10T20:56:03.983Z,5.50
2023-01-10T20:58:30.907Z,5.50
2023-01-10T21:00:57.733Z,5.60
2023-01-10T21:03:24.750Z,5.60
2023-01-10T21:05:52.652Z,5.60
2023-01-10T21:08:21.824Z,5.60
2023-01-10T21:10:50.047Z,5.60
2023-01-10T21:13:17.286Z,5.70
2023-01-10T21:15:46.795Z,5.70
2023-01-10T21:18:15.600Z,5.70
2023-01-10T21:20:43.208Z,5.70
2023-01-10T21:23:10.110Z,5.70
2023-01-10T21:25:38.642Z,5.70
2023-01-10T21:28:09.678Z,5.60
2023-01-10T21:30:36.908Z,5.30
2023-01-10T21:33:04.082Z,5.10
2023-01-10T21:35:31.110Z,5.00
2023-01-10T21:37:57.996Z,4.90
2023-01-10T21:40:25.414Z,4.90
2023-01-10T21:43:10.012Z,4.80
2023-01-10T21:45:47.209Z,4.90
2023-01-10T21:48:35.020Z,4.90
2023-01-10T21:51:20.721Z,4.90
2023-01-10T21:57:39.429Z,5.00
2023-01-10T22:00:19.690Z,5.10
2023-01-10T22:03:05.562Z,5.20
2023-01-10T22:05:58.418Z,5.20
2023-01-10T22:08:40.403Z,5.30
2023-01-10T22:11:13.243Z,5.30
2023-01-10T22:17:21.491Z,5.40
2023-01-10T22:19:51.096Z,5.50
2023-01-10T22:22:18.941Z,5.50
2023-01-10T22:24:47.896Z,5.50
2023-01-10T22:27:15.350Z,5.50
2023-01-10T22:29:42.369Z,5.60
2023-01-10T22:32:10.620Z,5.60
2023-01-10T22:34:37.666Z,5.60
2023-01-10T22:37:04.651Z,5.60
2023-01-10T22:39:31.586Z,5.60
2023-01-10T22:41:58.481Z,5.60
2023-01-10T22:44:26.745Z,5.70
2023-01-10T22:46:55.077Z,5.70
2023-01-10T22:49:23.463Z,5.70
2023-01-10T22:51:50.389Z,5.80
2023-01-10T22:54:17.735Z,5.80
2023-01-10T22:56:46.171Z,5.80
2023-01-10T22:59:13.648Z,5.90
2023-01-10T23:01:40.745Z,5.90
2023-01-10T23:04:07.718Z,5.90
2023-01-10T23:06:36.018Z,6.00
2023-01-10T23:09:03.359Z,6.00
2023-01-10T23:11:31.076Z,6.00
2023-01-10T23:13:57.947Z,6.00
2023-01-10T23:16:32.678Z,6.10
2023-01-10T23:19:00.361Z,6.10
2023-01-10T23:21:29.267Z,6.20
2023-01-10T23:23:57.577Z,6.10
2023-01-10T23:26:24.995Z,6.20
2023-01-10T23:28:52.309Z,6.20
2023-01-10T23:31:21.255Z,6.20
2023-01-10T23:33:49.052Z,6.20
2023-01-10T23:36:16.808Z,6.20
2023-01-10T23:38:44.103Z,6.10
2023-01-10T23:41:12.622Z,6.20
2023-01-10T23:43:39.544Z,6.20
2023-01-10T23:46:06.965Z,6.20
2023-01-10T23:48:34.239Z,6.20
2023-01-10T23:51:01.228Z,6.30
2023-01-10T23:53:28.239Z,6.30
2023-01-10T23:55:55.213Z,6.30
2023-01-10T23:58:23.440Z,6.30
